createdAt,value
2018-08-25T00:01:15.801Z,19.37
2018-08-25T00:03:45.823Z,19.40
2018-08-25T00:06:15.153Z,19.45
2018-08-25T00:08:44.724Z,19.34
2018-08-25T00:11:15.771Z,19.41
2018-08-25T00:13:45.339Z,19.39
2018-08-25T00:16:16.320Z,19.48
2018-08-25T00:21:34.289Z,19.20
2018-08-25T00:24:03.841Z,19.12
2018-08-25T00:26:33.083Z,19.12
2018-08-25T00:29:05.139Z,19.04
2018-08-25T00:31:34.578Z,19.11
2018-08-25T00:34:05.040Z,19.07
2018-08-25T00:36:35.543Z,19.14
2018-08-25T00:42:16.843Z,18.95
2018-08-25T00:44:47.382Z,19.01
2018-08-25T00:47:18.315Z,19.10
2018-08-25T00:49:48.846Z,19.05
2018-08-25T00:52:18.415Z,19.05
2018-08-25T00:55:03.451Z,19.09
2018-08-25T00:57:38.672Z,18.92
2018-08-25T01:00:14.334Z,18.94
2018-08-25T01:02:43.996Z,18.97
2018-08-25T01:05:13.986Z,18.81
2018-08-25T01:07:43.610Z,18.84
2018-08-25T01:10:12.945Z,18.82
2018-08-25T01:12:43.997Z,18.81
2018-08-25T01:15:17.456Z,18.78
2018-08-25T01:17:47.511Z,18.80
2018-08-25T01:20:21.151Z,18.80
2018-08-25T01:22:51.034Z,18.91
2018-08-25T01:25:21.588Z,18.89
2018-08-25T01:27:53.030Z,18.78
2018-08-25T01:30:25.701Z,18.75
2018-08-25T01:32:59.924Z,18.79
2018-08-25T01:35:30.556Z,18.77
2018-08-25T01:38:00.394Z,18.76
2018-08-25T01:40:30.118Z,18.71
2018-08-25T01:43:02.098Z,18.75
2018-08-25T01:45:32.642Z,18.76
2018-08-25T01:48:02.477Z,18.81
2018-08-25T01:50:32.649Z,18.75
2018-08-25T01:53:03.600Z,18.72
2018-08-25T01:55:33.870Z,18.75
2018-08-25T01:58:03.491Z,17.87
2018-08-25T02:00:33.638Z,18.55
2018-08-25T02:03:03.962Z,18.51
2018-08-25T02:05:33.310Z,18.49
2018-08-25T02:08:04.880Z,18.58
2018-08-25T02:10:35.056Z,18.68
2018-08-25T02:13:06.194Z,18.71
2018-08-25T02:15:37.728Z,18.68
2018-08-25T02:18:12.504Z,18.63
2018-08-25T02:20:42.365Z,18.55
2018-08-25T02:23:12.262Z,18.57
2018-08-25T02:25:42.881Z,18.55
2018-08-25T02:28:12.899Z,18.62
2018-08-25T02:30:43.532Z,18.47
2018-08-25T02:33:14.040Z,18.42
2018-08-25T02:35:46.146Z,18.43
2018-08-25T02:38:16.192Z,18.40
2018-08-25T02:40:45.664Z,18.43
2018-08-25T02:43:14.814Z,18.54
2018-08-25T02:45:44.858Z,18.60
2018-08-25T02:48:15.044Z,18.46
2018-08-25T02:50:44.321Z,18.39
2018-08-25T02:53:13.918Z,18.36
2018-08-25T02:55:43.440Z,18.36
2018-08-25T02:58:13.292Z,18.21
2018-08-25T03:00:45.738Z,18.01
2018-08-25T03:03:16.389Z,17.74
2018-08-25T03:05:48.031Z,17.43
2018-08-25T03:08:18.662Z,17.18
2018-08-25T03:10:48.591Z,17.12
2018-08-25T03:13:19.588Z,17.16
2018-08-25T03:15:50.318Z,17.16
2018-08-25T03:18:19.640Z,17.17
2018-08-25T03:20:58.969Z,17.15
2018-08-25T03:23:31.282Z,17.15
2018-08-25T03:26:02.244Z,17.23
2018-08-25T03:28:31.819Z,17.21
2018-08-25T03:31:01.796Z,17.02
2018-08-25T03:33:31.329Z,16.54
2018-08-25T03:36:00.889Z,16.19
2018-08-25T03:38:30.479Z,16.06
2018-08-25T03:40:59.847Z,15.92
2018-08-25T03:43:29.378Z,15.89
2018-08-25T03:46:00.361Z,15.79
2018-08-25T03:48:29.790Z,15.70
2018-08-25T03:50:58.989Z,15.73
2018-08-25T03:53:29.565Z,15.75
2018-08-25T03:55:59.217Z,15.72
2018-08-25T03:58:29.885Z,15.72
2018-08-25T04:01:00.488Z,15.85
2018-08-25T04:03:30.462Z,15.81
2018-08-25T04:06:00.428Z,15.62
2018-08-25T04:08:31.048Z,15.57
2018-08-25T04:11:01.730Z,15.52
2018-08-25T04:13:33.265Z,15.49
2018-08-25T04:16:04.421Z,15.53
2018-08-25T04:18:34.710Z,15.63
2018-08-25T04:21:04.801Z,15.58
2018-08-25T04:23:34.159Z,15.55
2018-08-25T04:26:03.728Z,15.66
2018-08-25T04:28:33.020Z,15.72
2018-08-25T04:31:03.873Z,15.61
2018-08-25T04:33:33.785Z,15.55
2018-08-25T04:36:11.599Z,15.62
2018-08-25T04:38:42.620Z,15.65
2018-08-25T04:41:12.552Z,15.54
2018-08-25T04:43:43.233Z,15.46
2018-08-25T04:46:13.825Z,15.45
2018-08-25T04:48:44.608Z,15.48
2018-08-25T04:51:15.349Z,15.53
2018-08-25T04:53:54.293Z,15.57
2018-08-25T04:56:23.992Z,15.51
2018-08-25T04:58:53.367Z,15.50
2018-08-25T05:01:23.667Z,15.47
2018-08-25T05:03:52.830Z,15.59
2018-08-25T05:06:24.069Z,15.58
2018-08-25T05:08:57.526Z,15.50
2018-08-25T05:11:27.154Z,15.42
2018-08-25T05:13:57.040Z,15.35
2018-08-25T05:16:26.872Z,15.44
2018-08-25T05:18:56.032Z,15.44
2018-08-25T05:21:25.598Z,15.60
2018-08-25T05:23:55.344Z,15.58
2018-08-25T05:26:26.335Z,15.55
2018-08-25T05:28:56.145Z,15.42
2018-08-25T05:31:25.920Z,15.73
2018-08-25T05:33:55.574Z,16.18
2018-08-25T05:36:25.759Z,16.45
2018-08-25T05:39:04.987Z,16.57
2018-08-25T05:41:35.977Z,16.35
2018-08-25T05:44:06.875Z,16.05
2018-08-25T05:46:36.888Z,16.05
2018-08-25T05:49:06.187Z,16.01
2018-08-25T05:51:37.511Z,16.09
2018-08-25T05:54:07.948Z,16.27
2018-08-25T05:56:38.238Z,16.14
2018-08-25T05:59:08.411Z,16.06
2018-08-25T06:01:38.197Z,16.66
2018-08-25T06:04:07.813Z,16.66
2018-08-25T06:06:38.396Z,17.34
2018-08-25T06:09:14.575Z,17.25
2018-08-25T06:11:45.358Z,17.12
2018-08-25T06:14:18.131Z,16.96
2018-08-25T06:16:47.574Z,16.64
2018-08-25T06:19:17.346Z,16.75
2018-08-25T06:21:47.959Z,16.70
2018-08-25T06:24:17.816Z,16.94
2018-08-25T06:26:49.604Z,17.06
2018-08-25T06:29:19.715Z,17.03
2018-08-25T06:31:50.426Z,16.89
2018-08-25T06:34:20.898Z,16.71
2018-08-25T06:36:51.451Z,16.76
2018-08-25T06:39:24.568Z,16.73
2018-08-25T06:41:56.436Z,16.78
2018-08-25T06:44:26.514Z,16.81
2018-08-25T06:46:57.469Z,17.06
2018-08-25T06:49:30.677Z,17.68
2018-08-25T06:52:00.402Z,17.92
2018-08-25T06:54:30.218Z,17.42
2018-08-25T06:57:01.543Z,17.12
2018-08-25T07:02:15.826Z,17.21
2018-08-25T07:04:45.295Z,17.26
2018-08-25T07:07:15.435Z,17.06
2018-08-25T07:09:45.625Z,17.21
2018-08-25T07:12:18.239Z,17.00
2018-08-25T07:14:47.649Z,16.92
2018-08-25T07:17:17.155Z,16.90
2018-08-25T07:19:47.576Z,16.92
2018-08-25T07:24:52.529Z,16.47
2018-08-25T07:27:22.494Z,16.37
2018-08-25T07:29:52.319Z,16.48
2018-08-25T07:32:21.987Z,16.62
2018-08-25T07:34:51.512Z,16.63
2018-08-25T07:37:20.804Z,16.54
2018-08-25T07:42:30.102Z,16.48
2018-08-25T07:45:09.276Z,16.54
2018-08-25T07:47:41.269Z,16.88
2018-08-25T07:50:13.579Z,17.39
2018-08-25T07:52:47.487Z,17.27
2018-08-25T07:55:16.837Z,17.25
2018-08-25T07:57:46.132Z,17.24
2018-08-25T08:00:17.945Z,17.04
2018-08-25T08:02:50.145Z,17.09
2018-08-25T08:08:09.016Z,17.60
2018-08-25T08:10:48.089Z,17.59
2018-08-25T08:13:17.531Z,17.61
2018-08-25T08:15:48.441Z,17.73
2018-08-25T08:18:19.043Z,17.66
2018-08-25T08:20:50.077Z,17.71
2018-08-25T08:23:19.479Z,17.90
2018-08-25T08:25:51.315Z,17.96
2018-08-25T08:28:21.464Z,17.89
2018-08-25T08:30:53.613Z,18.49
2018-08-25T08:33:26.718Z,18.61
2018-08-25T08:36:02.608Z,18.84
2018-08-25T08:38:40.682Z,19.47
2018-08-25T08:41:12.355Z,19.77
2018-08-25T08:43:46.172Z,19.87
2018-08-25T08:46:24.288Z,20.11
2018-08-25T08:48:55.999Z,20.42
2018-08-25T08:51:27.804Z,20.59
2018-08-25T08:54:13.607Z,20.45
2018-08-25T09:02:45.646Z,20.51
2018-08-25T09:05:23.647Z,20.15
2018-08-25T09:07:55.744Z,19.77
2018-08-25T09:10:29.624Z,19.97
2018-08-25T09:12:59.758Z,20.29
2018-08-25T09:15:34.476Z,19.02
2018-08-25T09:18:06.289Z,19.71
2018-08-25T09:20:36.193Z,20.40
2018-08-25T09:23:11.335Z,20.21
2018-08-25T09:25:42.522Z,20.05
2018-08-25T09:28:13.807Z,20.19
2018-08-25T09:30:47.598Z,20.57
2018-08-25T09:33:18.860Z,20.95
2018-08-25T09:35:57.832Z,21.01
2018-08-25T09:38:33.543Z,21.12
2018-08-25T09:41:07.416Z,21.26
2018-08-25T09:43:37.609Z,21.30
2018-08-25T09:46:07.885Z,21.60
2018-08-25T09:48:38.585Z,21.17
2018-08-25T09:51:08.772Z,21.27
2018-08-25T09:53:41.045Z,21.70
2018-08-25T09:56:12.462Z,21.53
2018-08-25T09:58:45.484Z,21.42
2018-08-25T10:01:21.146Z,21.28
2018-08-25T10:03:53.547Z,20.66
2018-08-25T10:06:23.872Z,21.14
2018-08-25T10:08:54.491Z,21.64
2018-08-25T10:11:25.130Z,21.61
2018-08-25T10:13:55.074Z,22.19
2018-08-25T10:16:26.047Z,21.88
2018-08-25T10:18:57.934Z,21.76
2018-08-25T10:21:31.677Z,21.24
2018-08-25T10:24:15.547Z,21.19
2018-08-25T10:26:51.808Z,21.64
2018-08-25T10:29:22.531Z,22.46
2018-08-25T10:31:52.065Z,22.97
2018-08-25T10:34:22.881Z,23.05
2018-08-25T10:36:53.454Z,22.55
2018-08-25T10:39:26.812Z,22.33
2018-08-25T10:41:58.459Z,22.32
2018-08-25T10:44:33.357Z,22.06
2018-08-25T10:47:09.137Z,22.07
2018-08-25T10:49:40.765Z,22.77
2018-08-25T10:52:11.249Z,23.21
2018-08-25T10:54:41.173Z,22.78
2018-08-25T10:57:11.357Z,22.82
2018-08-25T10:59:44.657Z,22.87
2018-08-25T11:02:28.979Z,22.76
2018-08-25T11:05:04.732Z,22.43
2018-08-25T11:07:38.556Z,22.26
2018-08-25T11:12:51.009Z,22.71
2018-08-25T11:15:21.398Z,22.47
2018-08-25T11:17:50.826Z,21.94
2018-08-25T11:20:21.245Z,21.54
2018-08-25T11:22:52.649Z,21.05
2018-08-25T11:25:25.854Z,20.98
2018-08-25T11:27:55.810Z,21.68
2018-08-25T11:30:28.553Z,22.27
2018-08-25T11:33:10.359Z,22.39
2018-08-25T11:35:41.878Z,22.69
2018-08-25T11:38:12.475Z,23.32
2018-08-25T11:40:46.707Z,23.40
2018-08-25T11:43:18.151Z,23.17
2018-08-25T11:45:48.779Z,22.89
2018-08-25T11:48:19.609Z,22.33
2018-08-25T11:50:50.826Z,22.00
2018-08-25T11:53:21.150Z,22.19
2018-08-25T11:55:51.258Z,22.24
2018-08-25T11:58:20.652Z,23.01
2018-08-25T12:00:58.082Z,23.88
2018-08-25T12:03:30.136Z,23.61
2018-08-25T12:06:01.853Z,23.62
2018-08-25T12:08:32.785Z,23.73
2018-08-25T12:11:05.759Z,24.00
2018-08-25T12:16:06.949Z,24.16
2018-08-25T12:18:41.750Z,23.44
2018-08-25T12:21:12.910Z,22.79
2018-08-25T12:23:43.262Z,22.54
2018-08-25T12:26:29.504Z,21.90
2018-08-25T12:29:00.291Z,21.62
2018-08-25T12:31:33.242Z,21.34
2018-08-25T12:34:03.497Z,21.14
2018-08-25T12:36:35.232Z,21.75
2018-08-25T12:39:08.533Z,22.48
2018-08-25T12:41:39.439Z,22.31
2018-08-25T12:44:09.147Z,22.21
2018-08-25T12:46:41.433Z,21.62
2018-08-25T12:49:14.136Z,21.49
2018-08-25T12:51:45.096Z,21.40
2018-08-25T12:54:14.738Z,21.36
2018-08-25T12:56:53.929Z,21.85
2018-08-25T12:59:27.301Z,22.22
2018-08-25T13:02:03.049Z,22.76
2018-08-25T13:04:40.965Z,22.91
2018-08-25T13:07:11.296Z,23.05
2018-08-25T13:09:45.721Z,23.31
2018-08-25T13:12:17.415Z,23.58
2018-08-25T13:14:50.848Z,23.27
2018-08-25T13:17:24.582Z,22.37
2018-08-25T13:19:55.773Z,22.04
2018-08-25T13:22:27.650Z,21.81
2018-08-25T13:24:58.987Z,21.43
2018-08-25T13:27:31.308Z,21.40
2018-08-25T13:30:04.706Z,21.04
2018-08-25T13:32:39.057Z,20.98
2018-08-25T13:35:09.674Z,21.09
2018-08-25T13:37:45.111Z,21.67
2018-08-25T13:40:17.141Z,21.67
2018-08-25T13:42:48.531Z,21.32
2018-08-25T13:45:20.067Z,20.85
2018-08-25T13:47:54.851Z,20.52
2018-08-25T13:50:26.076Z,20.61
2018-08-25T13:52:55.992Z,20.87
2018-08-25T13:55:25.244Z,21.18
2018-08-25T13:57:54.714Z,21.28
2018-08-25T14:00:24.631Z,21.84
2018-08-25T14:02:54.673Z,22.56
2018-08-25T14:05:29.038Z,22.45
2018-08-25T14:07:59.039Z,22.48
2018-08-25T14:10:30.651Z,22.10
2018-08-25T14:13:01.315Z,21.34
2018-08-25T14:15:36.190Z,21.47
2018-08-25T14:18:05.911Z,21.93
2018-08-25T14:20:36.093Z,22.16
2018-08-25T14:23:06.865Z,22.60
2018-08-25T14:25:38.916Z,22.56
2018-08-25T14:28:23.492Z,22.87
2018-08-25T14:30:55.044Z,21.90
2018-08-25T14:33:30.339Z,22.75
2018-08-25T14:35:59.811Z,23.29
2018-08-25T14:38:32.143Z,23.78
2018-08-25T14:41:04.196Z,23.48
2018-08-25T14:43:35.292Z,23.04
2018-08-25T14:46:08.006Z,22.53
2018-08-25T14:48:37.408Z,22.07
2018-08-25T14:51:08.768Z,21.92
2018-08-25T14:53:39.867Z,21.50
2018-08-25T14:56:12.326Z,21.00
2018-08-25T14:58:43.461Z,20.55
2018-08-25T15:01:14.976Z,19.54
2018-08-25T15:03:46.250Z,18.89
2018-08-25T15:06:16.721Z,18.89
2018-08-25T15:08:46.653Z,18.40
2018-08-25T15:11:18.946Z,18.42
2018-08-25T15:13:50.063Z,18.14
2018-08-25T15:16:21.507Z,18.24
2018-08-25T15:18:57.521Z,18.53
2018-08-25T15:21:32.018Z,18.91
2018-08-25T15:26:53.057Z,19.05
2018-08-25T15:29:22.522Z,19.13
2018-08-25T15:31:55.223Z,19.38
2018-08-25T15:34:27.419Z,19.36
2018-08-25T15:36:58.496Z,19.27
2018-08-25T15:39:31.777Z,19.00
2018-08-25T15:42:01.274Z,18.89
2018-08-25T15:44:32.245Z,18.86
2018-08-25T15:47:03.028Z,19.07
2018-08-25T15:49:32.732Z,19.18
2018-08-25T15:52:03.391Z,19.03
2018-08-25T15:54:33.756Z,19.21
2018-08-25T15:57:08.568Z,19.24
2018-08-25T15:59:47.151Z,19.43
2018-08-25T16:02:19.421Z,19.64
2018-08-25T16:04:49.610Z,19.70
2018-08-25T16:07:19.794Z,19.61
2018-08-25T16:10:15.084Z,19.86
2018-08-25T16:12:47.457Z,19.90
2018-08-25T16:15:26.090Z,19.96
2018-08-25T16:17:57.002Z,20.16
2018-08-25T16:20:27.909Z,20.13
2018-08-25T16:22:59.776Z,20.11
2018-08-25T16:25:29.672Z,20.15
2018-08-25T16:27:59.012Z,20.25
2018-08-25T16:30:28.896Z,20.37
2018-08-25T16:33:00.699Z,20.43
2018-08-25T16:35:35.522Z,20.41
2018-08-25T16:38:08.677Z,20.43
2018-08-25T16:40:40.726Z,20.42
2018-08-25T16:43:12.833Z,20.54
2018-08-25T16:45:45.454Z,20.58
2018-08-25T16:48:16.462Z,20.63
2018-08-25T16:50:52.549Z,20.57
2018-08-25T16:53:22.548Z,20.25
2018-08-25T16:55:56.575Z,20.24
2018-08-25T16:58:31.667Z,20.11
2018-08-25T17:03:38.492Z,20.01
2018-08-25T17:06:11.240Z,20.08
2018-08-25T17:08:42.659Z,20.22
2018-08-25T17:11:21.282Z,20.21
2018-08-25T17:13:54.045Z,20.17
2018-08-25T17:16:24.836Z,20.30
2018-08-25T17:18:56.841Z,20.40
2018-08-25T17:21:27.953Z,20.35
2018-08-25T17:24:00.113Z,20.36
2018-08-25T17:26:31.365Z,20.07
2018-08-25T17:29:01.359Z,19.93
2018-08-25T17:31:36.329Z,19.84
2018-08-25T17:34:07.373Z,19.74
2018-08-25T17:36:40.577Z,19.61
2018-08-25T17:39:16.419Z,19.71
2018-08-25T17:41:52.484Z,19.58
2018-08-25T17:44:24.027Z,19.30
2018-08-25T17:47:04.764Z,19.30
2018-08-25T17:49:35.532Z,19.31
2018-08-25T17:52:14.424Z,19.23
2018-08-25T17:54:55.288Z,19.16
2018-08-25T17:57:29.112Z,18.95
2018-08-25T18:00:16.260Z,18.73
2018-08-25T18:02:56.868Z,18.58
2018-08-25T18:05:39.489Z,18.32
2018-08-25T18:08:16.550Z,18.13
2018-08-25T18:10:49.093Z,18.04
2018-08-25T18:13:21.992Z,18.02
2018-08-25T18:18:44.145Z,18.28
2018-08-25T18:21:14.903Z,18.37
2018-08-25T18:23:47.888Z,18.25
2018-08-25T18:26:23.628Z,18.31
2018-08-25T18:28:53.238Z,18.28
2018-08-25T18:31:24.934Z,18.19
2018-08-25T18:33:55.023Z,18.19
2018-08-25T18:36:24.624Z,18.25
2018-08-25T18:38:54.966Z,18.21
2018-08-25T18:41:24.850Z,18.28
2018-08-25T18:43:55.996Z,18.26
2018-08-25T18:46:29.454Z,18.24
2018-08-25T18:49:01.941Z,18.30
2018-08-25T18:51:31.430Z,18.28
2018-08-25T18:54:01.628Z,18.09
2018-08-25T18:56:31.470Z,18.16
2018-08-25T18:59:04.091Z,18.09
2018-08-25T19:01:33.649Z,18.13
2018-08-25T19:04:03.736Z,18.19
2018-08-25T19:06:35.830Z,18.19
2018-08-25T19:09:10.538Z,18.19
2018-08-25T19:11:41.611Z,18.23
2018-08-25T19:14:14.688Z,18.26
2018-08-25T19:16:50.330Z,18.31
2018-08-25T19:19:21.271Z,18.26
2018-08-25T19:21:53.200Z,18.17
2018-08-25T19:24:27.474Z,18.01
2018-08-25T19:26:57.205Z,17.72
2018-08-25T19:29:28.681Z,17.72
2018-08-25T19:31:58.398Z,17.85
2018-08-25T19:34:31.591Z,17.77
2018-08-25T19:37:04.104Z,17.79
2018-08-25T19:39:36.354Z,17.84
2018-08-25T19:42:08.807Z,17.94
2018-08-25T19:44:40.308Z,17.33
2018-08-25T19:47:11.891Z,17.90
2018-08-25T19:49:42.732Z,17.94
2018-08-25T19:52:15.825Z,17.99
2018-08-25T19:54:47.822Z,17.97
2018-08-25T19:57:31.820Z,17.99
2018-08-25T20:00:10.607Z,18.01
2018-08-25T20:02:43.928Z,18.07
2018-08-25T20:05:14.757Z,18.00
2018-08-25T20:07:46.762Z,17.92
2018-08-25T20:10:16.569Z,17.86
2018-08-25T20:12:48.649Z,17.93
2018-08-25T20:15:28.038Z,17.99
2018-08-25T20:18:01.317Z,17.98
2018-08-25T20:20:36.704Z,17.93
2018-08-25T20:23:10.763Z,17.92
2018-08-25T20:25:43.261Z,17.90
2018-08-25T20:28:13.461Z,17.89
2018-08-25T20:30:46.510Z,17.76
2018-08-25T20:33:30.478Z,17.74
2018-08-25T20:36:09.576Z,17.74
2018-08-25T20:38:44.226Z,17.74
2018-08-25T20:41:15.225Z,17.71
2018-08-25T20:43:46.292Z,17.65
2018-08-25T20:46:16.722Z,17.60
2018-08-25T20:48:48.192Z,17.62
2018-08-25T20:51:18.933Z,17.64
2018-08-25T20:53:50.792Z,17.62
2018-08-25T20:56:22.097Z,17.67
2018-08-25T20:58:52.062Z,17.69
2018-08-25T21:01:22.585Z,17.67
2018-08-25T21:03:55.697Z,17.67
2018-08-25T21:06:31.753Z,17.75
2018-08-25T21:09:04.771Z,17.70
2018-08-25T21:11:40.334Z,17.68
2018-08-25T21:14:11.205Z,17.71
2018-08-25T21:16:42.355Z,17.64
2018-08-25T21:19:15.293Z,17.49
2018-08-25T21:21:49.921Z,17.48
2018-08-25T21:24:28.659Z,17.40
2018-08-25T21:27:05.271Z,17.42
2018-08-25T21:29:36.080Z,17.38
2018-08-25T21:32:09.177Z,17.33
2018-08-25T21:34:43.608Z,17.29
2018-08-25T21:37:13.412Z,16.96
2018-08-25T21:39:44.915Z,17.29
2018-08-25T21:42:15.647Z,17.23
2018-08-25T21:44:47.452Z,17.19
2018-08-25T21:47:28.280Z,17.21
2018-08-25T21:49:58.494Z,17.28
2018-08-25T21:52:30.563Z,17.27
2018-08-25T21:55:00.815Z,17.29
2018-08-25T21:57:31.732Z,17.31
2018-08-25T22:00:06.108Z,17.24
2018-08-25T22:02:39.023Z,17.17
2018-08-25T22:05:08.395Z,17.18
2018-08-25T22:07:40.793Z,17.12
2018-08-25T22:10:11.489Z,17.10
2018-08-25T22:12:42.484Z,16.94
2018-08-25T22:15:16.881Z,16.92
2018-08-25T22:17:46.178Z,16.90
2018-08-25T22:20:17.260Z,16.94
2018-08-25T22:22:47.565Z,16.94
2018-08-25T22:25:17.923Z,16.94
2018-08-25T22:27:48.238Z,16.93
2018-08-25T22:30:18.193Z,16.85
2018-08-25T22:32:48.935Z,16.85
2018-08-25T22:35:18.569Z,16.71
2018-08-25T22:37:49.401Z,16.76
2018-08-25T22:40:20.457Z,16.74
2018-08-25T22:42:51.744Z,16.36
2018-08-25T22:45:21.644Z,16.64
2018-08-25T22:47:51.971Z,16.51
2018-08-25T22:50:21.336Z,16.50
2018-08-25T22:52:53.348Z,16.42
2018-08-25T22:55:25.402Z,16.35
2018-08-25T22:57:55.878Z,16.38
2018-08-25T23:00:25.428Z,16.36
2018-08-25T23:03:13.224Z,16.33
2018-08-25T23:05:45.773Z,16.35
2018-08-25T23:08:16.530Z,16.15
2018-08-25T23:10:46.537Z,16.22
2018-08-25T23:13:16.354Z,16.22
2018-08-25T23:15:48.499Z,16.22
2018-08-25T23:18:19.564Z,16.14
2018-08-25T23:20:49.345Z,16.15
2018-08-25T23:23:18.835Z,16.21
2018-08-25T23:25:55.413Z,16.30
2018-08-25T23:28:31.900Z,16.41
2018-08-25T23:31:01.440Z,16.37
2018-08-25T23:33:31.274Z,15.98
2018-08-25T23:36:03.507Z,15.61
2018-08-25T23:38:40.603Z,15.53
2018-08-25T23:41:11.926Z,15.58
2018-08-25T23:43:42.153Z,15.62
2018-08-25T23:46:11.873Z,15.71
2018-08-25T23:48:45.655Z,15.67
2018-08-25T23:51:16.615Z,15.70
2018-08-25T23:53:46.577Z,15.75
2018-08-25T23:56:16.845Z,15.80
2018-08-25T23:58:46.309Z,15.62
